Terminal Aerodrome Forecast
Issued by NWS

Home | Current Version | Previous Version | Text Only | Print | Product List | Glossary On
Versions: 1 2 3 4 5 6 7 8 9 10 11 12 13 14 15 16 17 18 19 20 21 22
000
FTUS45 KTFX 241129
TAFGTF
TAF
KGTF 241129Z 2412/2512 VRB03KT 1/4SM FG SKC
     FM241400 VRB04KT P6SM SCT040
     FM241600 06008KT P6SM VCSH BKN040
     FM250200 09005KT P6SM SCT050
     FM250900 21004KT P6SM SKC=

USA.gov is the U.S. government's official web portal to all federal, state and local government web resources and services.